Time;durP1;ratioP1;P1;durP2;ratioP2;P2;SDS_P1;SDS_P2;PMS_P1;PMS_P2;Temp;Humidity;BMP_temperature;BMP_pressure;BME280_temperature;BME280_humidity;BME280_pressure;Samples;Min_cycle;Max_cycle;Signal;HPM_P1;HPM_P2
2021/11/19 00:00:16;;;;;;;224.18;109.30;;;;;;;3.94;46.61;100565.25;1804954;78;20931;-63
2021/11/19 00:02:43;;;;;;;227.60;109.90;;;;;;;3.95;46.38;100564.30;1806670;79;20899;-63
2021/11/19 00:05:11;;;;;;;223.53;108.35;;;;;;;3.97;46.47;100563.67;1809577;78;20891;-67
2021/11/19 00:07:38;;;;;;;231.95;108.40;;;;;;;4.17;46.20;100561.12;1810230;78;22471;-65
2021/11/19 00:10:07;;;;;;;217.62;106.52;;;;;;;4.22;45.14;100557.69;1811744;78;21150;-64
2021/11/19 00:12:34;;;;;;;226.95;105.20;;;;;;;4.22;45.14;100557.69;1809328;78;20939;-63
2021/11/19 00:15:04;;;;;;;248.65;118.93;;;;;;;3.95;45.57;100556.56;1812960;78;20990;-68
2021/11/19 00:17:31;;;;;;;259.50;122.53;;;;;;;3.83;45.90;100553.28;1812028;78;21445;-67
2021/11/19 00:19:59;;;;;;;271.02;132.43;;;;;;;3.72;46.09;100557.25;1812258;78;22384;-63
2021/11/19 00:22:26;;;;;;;245.07;122.20;;;;;;;3.53;46.00;100554.61;1750889;80;21157;-63
2021/11/19 00:24:54;;;;;;;238.55;121.17;;;;;;;3.24;46.29;100537.73;1811680;78;20950;-65
2021/11/19 00:27:21;;;;;;;224.73;114.15;;;;;;;3.20;46.15;100549.23;1806578;78;20959;-71
2021/11/19 00:29:50;;;;;;;216.40;109.05;;;;;;;3.20;46.15;100549.23;1795992;78;20955;-63
2021/11/19 00:32:20;;;;;;;247.75;123.05;;;;;;;3.05;46.51;100544.41;1805366;78;21473;-63
2021/11/19 00:34:48;;;;;;;215.85;109.90;;;;;;;3.08;46.78;100543.34;1811205;78;21138;-63
2021/11/19 00:37:16;;;;;;;226.07;108.20;;;;;;;2.96;47.24;100543.08;1807551;78;21661;-63
2021/11/19 00:39:43;;;;;;;267.37;130.63;;;;;;;3.09;47.14;100538.53;1807313;78;21046;-62
2021/11/19 00:42:11;;;;;;;294.62;138.47;;;;;;;3.04;47.36;100520.89;1809222;78;21505;-66
2021/11/19 00:44:38;;;;;;;285.52;132.85;;;;;;;3.04;47.36;100520.89;1808878;78;21160;-65
2021/11/19 00:47:07;;;;;;;280.62;134.03;;;;;;;3.19;47.25;100525.72;1807834;78;21982;-66
2021/11/19 00:49:36;;;;;;;300.38;141.73;;;;;;;3.36;47.29;100519.94;1807209;78;21105;-66
2021/11/19 00:52:04;;;;;;;279.63;129.30;;;;;;;3.33;47.26;100517.17;1811195;78;21082;-62
2021/11/19 00:54:31;;;;;;;264.57;127.20;;;;;;;3.41;46.88;100515.23;1808538;78;20982;-62
2021/11/19 00:57:03;;;;;;;269.02;127.17;;;;;;;3.45;46.26;100499.01;1809247;78;20955;-64
2021/11/19 00:59:32;;;;;;;252.05;126.40;;;;;;;3.27;46.31;100505.27;1807189;78;21130;-63
2021/11/19 01:02:07;;;;;;;278.42;136.12;;;;;;;3.18;46.65;100510.70;1810048;78;20896;-65
2021/11/19 01:04:35;;;;;;;269.65;134.52;;;;;;;3.05;46.95;100498.53;1785700;78;21039;-72
2021/11/19 01:07:04;;;;;;;252.03;124.25;;;;;;;2.85;47.39;100500.19;1793739;77;22296;-71
2021/11/19 01:09:34;;;;;;;202.20;100.72;;;;;;;3.02;47.33;100505.22;1787846;79;21041;-63
2021/11/19 01:12:01;;;;;;;234.87;112.72;;;;;;;3.14;47.41;100498.59;1786996;79;21109;-64
2021/11/19 01:14:42;;;;;;;231.87;115.65;;;;;;;3.15;47.23;100505.36;1759368;79;20906;-73
2021/11/19 01:17:14;;;;;;;183.12;93.47;;;;;;;3.11;47.42;100494.16;1793630;77;21061;-64
2021/11/19 01:20:00;;;;;;;230.70;115.30;;;;;;;3.22;47.11;100489.37;1789556;79;21144;-64
2021/11/19 01:22:29;;;;;;;233.80;114.40;;;;;;;3.37;47.11;100475.18;1793168;77;21047;-64
2021/11/19 01:24:57;;;;;;;250.47;119.67;;;;;;;3.52;47.04;100470.48;1792123;79;21128;-65
2021/11/19 01:27:24;;;;;;;249.10;125.78;;;;;;;3.37;47.52;100468.30;1789581;79;21130;-64
2021/11/19 01:29:52;;;;;;;220.07;108.25;;;;;;;3.37;47.52;100468.30;1792500;79;20966;-73
2021/11/19 01:32:24;;;;;;;229.40;118.42;;;;;;;3.50;47.19;100469.81;1793600;77;21093;-64
2021/11/19 01:35:10;;;;;;;229.93;117.47;;;;;;;3.61;46.73;100469.70;1790943;79;21115;-64
2021/11/19 01:37:38;;;;;;;254.60;122.85;;;;;;;3.67;46.36;100460.13;1789574;78;21133;-64
2021/11/19 01:40:16;;;;;;;229.90;116.73;;;;;;;3.74;45.90;100463.81;1783858;79;20996;-64
2021/11/19 01:42:54;;;;;;;219.72;113.57;;;;;;;3.68;45.96;100457.11;1788873;79;22406;-65
2021/11/19 01:45:34;;;;;;;226.25;114.45;;;;;;;3.62;45.78;100455.38;1790761;79;21522;-69
2021/11/19 01:48:03;;;;;;;237.68;115.35;;;;;;;3.67;45.77;100453.69;1793919;77;20910;-64
2021/11/19 01:50:42;;;;;;;227.70;115.45;;;;;;;3.42;46.26;100455.02;1785281;79;21480;-65
2021/11/19 01:53:23;;;;;;;201.80;103.02;;;;;;;3.51;46.58;100454.20;1789904;77;21621;-65
2021/11/19 01:56:03;;;;;;;153.30;82.70;;;;;;;3.61;46.58;100455.53;1793876;77;21013;-71
2021/11/19 01:58:38;;;;;;;175.65;92.35;;;;;;;3.59;46.46;100455.64;1792966;77;21016;-67
2021/11/19 02:01:14;;;;;;;158.72;80.65;;;;;;;3.68;46.22;100453.23;1791067;79;21535;-67
2021/11/19 02:03:46;;;;;;;132.75;71.72;;;;;;;3.60;46.32;100450.04;1758749;78;21638;-66
2021/11/19 02:06:29;;;;;;;116.67;63.02;;;;;;;3.68;46.17;100446.80;1790608;79;27650;-63
2021/11/19 02:08:59;;;;;;;120.72;63.75;;;;;;;3.59;46.20;100453.06;1790437;79;21633;-65
2021/11/19 02:11:49;;;;;;;124.15;62.43;;;;;;;3.80;46.20;100448.30;1756164;80;20989;-62
2021/11/19 02:14:21;;;;;;;123.15;61.98;;;;;;;4.04;45.97;100442.73;1793636;77;21112;-64
2021/11/19 02:16:53;;;;;;;120.72;64.77;;;;;;;4.17;45.73;100445.02;1790226;79;21131;-71
2021/11/19 02:19:25;;;;;;;182.93;91.50;;;;;;;4.15;45.90;100442.59;1790879;79;22357;-66
2021/11/19 02:22:07;;;;;;;204.70;101.92;;;;;;;4.22;46.07;100446.25;1796696;77;21080;-64
2021/11/19 02:24:50;;;;;;;186.30;96.65;;;;;;;4.08;46.01;100435.05;1787283;79;21045;-64
2021/11/19 02:27:30;;;;;;;192.95;98.90;;;;;;;4.10;46.15;100439.62;1790335;79;20965;-62
2021/11/19 02:30:00;;;;;;;188.90;98.87;;;;;;;4.30;45.89;100443.80;1790769;79;21728;-70
2021/11/19 02:32:33;;;;;;;171.20;87.47;;;;;;;4.02;46.12;100444.17;1759659;79;21050;-65
2021/11/19 02:35:00;;;;;;;172.65;90.05;;;;;;;3.94;46.02;100447.91;1786028;77;21515;-63
2021/11/19 02:37:35;;;;;;;157.90;83.58;;;;;;;3.94;46.02;100447.91;1784282;77;21469;-62
2021/11/19 02:40:13;;;;;;;149.97;78.22;;;;;;;3.51;46.46;100445.19;1786936;77;20973;-67
2021/11/19 02:42:56;;;;;;;146.60;79.42;;;;;;;3.57;46.51;100438.22;1785486;77;21396;-64
2021/11/19 02:45:29;;;;;;;;;;;;;;;3.51;46.39;100442.61;1784816;79;21073;-63
2021/11/19 02:47:56;;;;;;;151.75;82.40;;;;;;;3.60;46.54;100437.96;1785355;79;20253;-65
2021/11/19 02:50:24;;;;;;;149.55;74.22;;;;;;;3.57;46.46;100433.55;1781744;77;20934;-65
2021/11/19 02:52:54;;;;;;;131.50;69.82;;;;;;;3.50;46.21;100437.13;1786077;77;21159;-64
2021/11/19 02:55:26;;;;;;;153.07;77.08;;;;;;;3.45;46.20;100439.30;1780890;79;21132;-71
2021/11/19 02:57:53;;;;;;;133.20;69.60;;;;;;;3.39;46.56;100438.52;1784589;79;21083;-64
2021/11/19 03:00:26;;;;;;;136.10;68.42;;;;;;;3.58;46.31;100437.75;1783656;77;21524;-65
2021/11/19 03:02:53;;;;;;;119.72;59.98;;;;;;;3.55;46.40;100437.53;1766676;79;21061;-64
2021/11/19 03:05:23;;;;;;;118.02;60.45;;;;;;;3.45;46.59;100438.00;1781993;77;20993;-67
2021/11/19 03:07:52;;;;;;;123.75;61.30;;;;;;;3.45;46.59;100438.00;1784623;79;27197;-64
2021/11/19 03:10:24;;;;;;;128.68;69.62;;;;;;;3.51;47.00;100436.16;1783777;77;20892;-64
2021/11/19 03:12:51;;;;;;;130.25;71.28;;;;;;;3.78;46.87;100441.97;1783800;79;21029;-64
2021/11/19 03:15:24;;;;;;;160.10;81.57;;;;;;;3.85;46.96;100411.30;1782126;77;20974;-66
2021/11/19 03:17:51;;;;;;;152.78;76.47;;;;;;;3.92;46.95;100422.71;1783341;77;21060;-64
2021/11/19 03:20:20;;;;;;;144.87;73.25;;;;;;;3.81;47.02;100426.23;1781820;77;21119;-65
2021/11/19 03:22:47;;;;;;;144.30;74.35;;;;;;;3.99;46.97;100417.35;1748577;80;21058;-65
2021/11/19 03:25:20;;;;;;;144.62;74.87;;;;;;;4.14;46.63;100409.53;1750820;79;21054;-63
2021/11/19 03:27:47;;;;;;;;;;;;;;;4.21;46.15;100425.77;1749877;80;20960;-64
2021/11/19 03:30:18;;;;;;;139.03;71.28;;;;;;;4.18;46.18;100415.71;1744999;80;20118;-65
2021/11/19 03:32:45;;;;;;;133.72;67.00;;;;;;;4.20;46.22;100412.50;1747956;80;21137;-64
2021/11/19 03:35:14;;;;;;;132.37;68.65;;;;;;;4.23;46.03;100413.05;1774572;79;20938;-65
2021/11/19 03:37:47;;;;;;;120.82;65.83;;;;;;;3.98;46.17;100415.73;1783385;80;21770;-63
2021/11/19 03:40:20;;;;;;;109.95;58.23;;;;;;;4.17;45.83;100426.96;1783197;80;20922;-62
2021/11/19 03:42:48;;;;;;;113.92;57.35;;;;;;;4.09;46.03;100419.45;1783047;80;20882;-70
2021/11/19 03:45:19;;;;;;;89.75;49.50;;;;;;;4.11;46.26;100408.52;1783116;80;21120;-65
2021/11/19 03:47:50;;;;;;;88.95;46.75;;;;;;;4.18;46.60;100406.68;1782702;80;20926;-64
2021/11/19 03:50:29;;;;;;;93.35;47.53;;;;;;;4.43;46.58;100411.72;1783432;80;21124;-63
2021/11/19 03:52:56;;;;;;;103.17;52.58;;;;;;;4.41;46.82;100406.70;1759211;80;21060;-64
2021/11/19 03:55:30;;;;;;;107.25;58.85;;;;;;;4.48;46.80;100407.78;1781619;80;21016;-72
2021/11/19 03:57:57;;;;;;;120.02;62.25;;;;;;;4.52;46.83;100416.06;1781901;80;21171;-66
2021/11/19 04:00:31;;;;;;;113.03;59.55;;;;;;;4.35;46.87;100405.96;1774339;80;22005;-71
2021/11/19 04:02:59;;;;;;;102.75;57.85;;;;;;;4.85;46.98;100400.53;1719029;81;21344;-64
2021/11/19 04:05:27;;;;;;;110.32;57.95;;;;;;;4.85;46.98;100400.53;1712251;81;21074;-64
2021/11/19 04:07:55;;;;;;;107.43;57.40;;;;;;;5.29;45.76;100396.34;1715690;83;21027;-65
2021/11/19 04:10:27;;;;;;;107.78;55.70;;;;;;;5.44;45.48;100396.66;1705019;83;21138;-64
2021/11/19 04:12:54;;;;;;;104.43;57.43;;;;;;;4.19;47.34;100387.66;1714490;82;20983;-75
2021/11/19 04:15:28;;;;;;;106.58;56.95;;;;;;;4.08;47.97;100384.75;1705717;83;21023;-67
2021/11/19 04:17:56;;;;;;;105.17;56.95;;;;;;;4.09;47.99;100384.63;1715265;83;21465;-64
2021/11/19 04:20:23;;;;;;;103.45;53.70;;;;;;;4.11;47.96;100378.84;1709276;83;21489;-65
2021/11/19 04:22:50;;;;;;;86.95;47.83;;;;;;;5.42;45.58;100378.38;1715963;81;21073;-64
2021/11/19 04:25:19;;;;;;;83.65;44.98;;;;;;;5.75;44.75;100376.42;1706147;83;21611;-63
2021/11/19 04:27:48;;;;;;;85.35;44.30;;;;;;;5.63;44.66;100372.45;1701103;83;21584;-64
2021/11/19 04:30:25;;;;;;;76.50;42.80;;;;;;;5.34;44.88;100370.05;1704812;83;20998;-69
2021/11/19 04:32:52;;;;;;;83.20;43.33;;;;;;;5.71;44.54;100375.09;1714917;83;21331;-67
2021/11/19 04:35:20;;;;;;;79.32;41.68;;;;;;;5.76;44.46;100387.61;1708259;83;21115;-65
2021/11/19 04:37:47;;;;;;;68.12;37.55;;;;;;;5.56;44.62;100389.02;1714241;82;21009;-64
2021/11/19 04:40:16;;;;;;;74.25;37.88;;;;;;;5.73;44.42;100385.31;1711649;83;21098;-63
2021/11/19 04:42:44;;;;;;;73.80;40.17;;;;;;;4.61;45.65;100378.58;1717675;81;21058;-65
2021/11/19 04:45:15;;;;;;;77.25;43.10;;;;;;;4.35;46.79;100370.64;1706422;82;21075;-67
2021/11/19 04:47:44;;;;;;;82.55;39.88;;;;;;;4.00;47.57;100380.28;1714027;81;21135;-67
2021/11/19 04:50:12;;;;;;;77.25;41.13;;;;;;;4.05;48.28;100376.84;1710379;83;21593;-74
2021/11/19 04:52:39;;;;;;;68.35;35.50;;;;;;;4.43;47.87;100377.68;1704370;83;21049;-65
2021/11/19 04:55:08;;;;;;;68.62;36.70;;;;;;;4.68;47.62;100368.98;1709474;83;21020;-67
2021/11/19 04:57:38;;;;;;;69.25;34.73;;;;;;;4.76;48.00;100365.22;1722123;83;22483;-70
2021/11/19 05:00:11;;;;;;;60.20;31.85;;;;;;;4.87;48.32;100363.73;1706829;83;22130;-72
2021/11/19 05:02:41;;;;;;;79.77;41.65;;;;;;;5.00;48.36;100356.48;1688024;83;22489;-72
2021/11/19 05:05:10;;;;;;;104.10;52.62;;;;;;;5.24;48.60;100357.70;1693706;82;21019;-69
2021/11/19 05:07:40;;;;;;;76.53;43.00;;;;;;;5.26;48.41;100359.64;1718721;83;21512;-71
2021/11/19 05:10:07;;;;;;;78.30;42.40;;;;;;;5.33;48.40;100359.39;1691807;83;20940;-70
2021/11/19 05:12:42;;;;;;;82.42;43.00;;;;;;;4.90;49.15;100369.10;1722236;83;21176;-70
2021/11/19 05:15:11;;;;;;;71.50;40.52;;;;;;;4.89;49.15;100365.71;1709383;83;21000;-66
2021/11/19 05:17:38;;;;;;;74.15;40.12;;;;;;;4.90;48.99;100363.94;1722268;83;20939;-68
2021/11/19 05:20:07;;;;;;;74.50;43.02;;;;;;;5.06;48.80;100368.80;1691683;84;20957;-69
2021/11/19 05:22:34;;;;;;;65.47;35.70;;;;;;;5.10;48.61;100364.97;1693844;83;21120;-63
2021/11/19 05:25:01;;;;;;;76.92;38.95;;;;;;;4.75;49.43;100366.98;1691597;84;21818;-66
2021/11/19 05:27:29;;;;;;;73.55;41.08;;;;;;;5.19;49.05;100362.47;1720748;82;21128;-68
2021/11/19 05:29:55;;;;;;;79.45;44.15;;;;;;;5.21;48.95;100365.25;1719218;82;21005;-66
2021/11/19 05:32:24;;;;;;;83.80;43.70;;;;;;;5.54;48.22;100355.24;1691184;83;21597;-66
2021/11/19 05:34:51;;;;;;;77.62;42.45;;;;;;;5.40;48.33;100359.14;1722163;83;21094;-67
2021/11/19 05:37:19;;;;;;;85.85;45.85;;;;;;;5.33;48.37;100360.69;1691260;84;21092;-68
2021/11/19 05:39:46;;;;;;;94.58;48.92;;;;;;;5.14;48.51;100356.45;1720341;83;21010;-70
2021/11/19 05:42:13;;;;;;;86.10;46.83;;;;;;;5.21;48.52;100362.66;1690481;84;20976;-69
2021/11/19 05:44:43;;;;;;;84.85;45.52;;;;;;;5.37;48.39;100359.43;1721065;83;21534;-68
2021/11/19 05:47:14;;;;;;;79.07;42.95;;;;;;;5.34;48.27;100363.14;1669360;84;20993;-69
2021/11/19 05:49:44;;;;;;;70.85;42.70;;;;;;;5.41;48.10;100356.08;1722196;81;21162;-69
2021/11/19 05:52:11;;;;;;;71.85;43.50;;;;;;;5.41;47.96;100358.17;1720939;83;21108;-68
2021/11/19 05:54:38;;;;;;;75.30;42.93;;;;;;;5.59;47.62;100359.00;1691842;84;21123;-68
2021/11/19 05:57:07;;;;;;;81.60;42.65;;;;;;;5.75;47.45;100356.22;1721368;83;21015;-69
2021/11/19 05:59:38;;;;;;;73.47;41.42;;;;;;;5.88;47.25;100353.27;1721049;82;21082;-68
2021/11/19 06:02:15;;;;;;;90.05;44.60;;;;;;;5.93;47.37;100357.53;1704742;82;22398;-69
2021/11/19 06:04:52;;;;;;;84.83;43.48;;;;;;;5.73;48.05;100364.62;1711752;81;21170;-68
2021/11/19 06:07:28;;;;;;;79.25;37.83;;;;;;;5.98;48.02;100371.63;1715638;81;21074;-68
2021/11/19 06:09:58;;;;;;;68.42;36.88;;;;;;;6.32;47.68;100366.52;1686931;84;20974;-69
2021/11/19 06:12:34;;;;;;;64.77;37.48;;;;;;;5.49;49.52;100359.57;1713358;82;21620;-69
2021/11/19 06:15:06;;;;;;;75.78;41.68;;;;;;;5.52;50.19;100363.13;1686848;84;21132;-68
2021/11/19 06:17:37;;;;;;;74.90;41.77;;;;;;;6.44;48.05;100355.45;1713851;81;21099;-69
2021/11/19 06:20:12;;;;;;;75.97;44.93;;;;;;;6.32;47.34;100351.47;1718118;82;21140;-69
2021/11/19 06:22:42;;;;;;;79.53;44.65;;;;;;;6.71;47.11;100351.05;1718404;82;21491;-69
2021/11/19 06:25:14;;;;;;;81.15;44.80;;;;;;;5.70;48.86;100351.50;1695045;82;21168;-68
2021/11/19 06:27:42;;;;;;;80.03;44.53;;;;;;;6.13;48.24;100350.39;1700082;83;21154;-69
2021/11/19 06:30:14;;;;;;;98.42;54.93;;;;;;;6.03;48.49;100335.78;1706385;82;21149;-68
2021/11/19 06:32:43;;;;;;;103.32;58.42;;;;;;;6.10;48.50;100332.11;1700413;82;21056;-69
2021/11/19 06:35:11;;;;;;;99.85;57.17;;;;;;;6.25;48.48;100338.81;1702852;82;21804;-67
2021/11/19 06:37:38;;;;;;;100.82;57.43;;;;;;;6.30;48.64;100337.89;1697859;83;21189;-67
2021/11/19 06:40:18;;;;;;;107.83;59.77;;;;;;;6.63;48.14;100332.86;1699446;83;21170;-67
2021/11/19 06:42:47;;;;;;;101.95;57.93;;;;;;;6.43;48.09;100344.74;1696889;83;20990;-67
2021/11/19 06:45:34;;;;;;;99.28;53.73;;;;;;;6.20;48.73;100341.05;1712925;82;21055;-67
2021/11/19 06:48:05;;;;;;;96.08;57.45;;;;;;;5.84;49.43;100332.86;1701753;81;21079;-67
2021/11/19 06:50:42;;;;;;;88.22;53.55;;;;;;;6.74;48.44;100324.80;1730675;81;20972;-67
2021/11/19 06:53:28;;;;;;;99.70;54.67;;;;;;;6.60;48.46;100321.53;1736546;81;21181;-68
2021/11/19 06:56:11;;;;;;;94.52;53.83;;;;;;;6.19;49.72;100323.91;1738289;80;20931;-68
2021/11/19 06:58:57;;;;;;;107.67;60.52;;;;;;;6.75;48.95;100304.44;1731214;81;21499;-67
2021/11/19 07:01:24;;;;;;;103.65;58.30;;;;;;;6.31;49.16;100309.73;1740521;80;21183;-67
2021/11/19 07:03:52;;;;;;;97.08;55.63;;;;;;;6.35;49.98;100317.52;1762982;81;21615;-68
2021/11/19 07:06:21;;;;;;;81.10;49.33;;;;;;;7.09;49.12;100306.95;1764226;81;21515;-67
2021/11/19 07:08:48;;;;;;;86.53;48.85;;;;;;;5.90;51.39;100311.23;1766014;81;21394;-67
2021/11/19 07:11:19;;;;;;;73.80;44.48;;;;;;;6.15;51.72;100314.83;1765102;81;21529;-67
2021/11/19 07:13:50;;;;;;;85.92;51.92;;;;;;;6.43;51.55;100313.67;1765352;81;21861;-68
2021/11/19 07:16:22;;;;;;;103.75;54.55;;;;;;;5.99;52.07;100313.77;1763380;81;21796;-67
2021/11/19 07:18:50;;;;;;;95.17;52.60;;;;;;;5.99;53.54;100308.59;1765562;81;21157;-67
2021/11/19 07:21:17;;;;;;;98.30;54.33;;;;;;;5.92;53.94;100303.69;1764942;81;21099;-66
2021/11/19 07:23:46;;;;;;;157.22;87.33;;;;;;;6.38;53.10;100305.56;1764555;81;21611;-68
2021/11/19 07:26:13;;;;;;;165.30;82.08;;;;;;;6.32;52.83;100313.94;1765035;81;21184;-67
2021/11/19 07:28:40;;;;;;;107.70;60.05;;;;;;;6.33;52.73;100302.64;1765737;81;21042;-67
2021/11/19 07:31:11;;;;;;;378.98;150.05;;;;;;;6.49;52.50;100307.88;1708117;81;22108;-67
2021/11/19 07:33:43;;;;;;;143.22;72.55;;;;;;;6.42;52.09;100306.88;1761600;81;20932;-67
2021/11/19 07:36:19;;;;;;;103.53;57.30;;;;;;;6.77;51.43;100305.88;1718924;81;21114;-67
2021/11/19 07:38:53;;;;;;;107.55;57.55;;;;;;;6.81;51.16;100309.77;1761962;81;21106;-67
2021/11/19 07:41:23;;;;;;;101.50;57.23;;;;;;;6.87;51.12;100299.28;1724483;81;21588;-68
2021/11/19 07:43:51;;;;;;;103.35;56.10;;;;;;;7.16;52.06;100300.63;1708198;81;22367;-68
2021/11/19 07:46:24;;;;;;;88.75;52.10;;;;;;;7.36;51.88;100298.08;1762635;81;21049;-68
2021/11/19 07:48:53;;;;;;;88.65;54.85;;;;;;;7.85;51.58;100298.07;1764322;81;21086;-68
2021/11/19 07:51:25;;;;;;;88.55;51.55;;;;;;;8.12;50.76;100299.48;1762013;81;21067;-69
2021/11/19 07:53:52;;;;;;;104.63;57.15;;;;;;;8.39;49.49;100281.91;1765052;81;21705;-67
2021/11/19 07:56:29;;;;;;;78.28;49.77;;;;;;;8.60;47.97;100280.02;1763701;81;21213;-67
2021/11/19 07:58:52;;;;;;;87.00;52.55;;;;;;;9.07;47.38;100285.63;1763693;81;21019;-68
2021/11/19 08:01:19;;;;;;;82.33;49.60;;;;;;;8.94;48.14;100292.67;1762598;81;21047;-68
2021/11/19 08:03:47;;;;;;;72.90;46.88;;;;;;;9.12;47.73;100289.81;1763958;80;21059;-67
2021/11/19 08:06:15;;;;;;;74.55;45.48;;;;;;;9.53;47.01;100292.94;1761257;81;21101;-67
2021/11/19 08:08:43;;;;;;;71.45;45.60;;;;;;;9.83;46.07;100285.20;1761903;80;22135;-67
2021/11/19 08:11:15;;;;;;;77.87;46.35;;;;;;;10.48;44.23;100272.80;1761353;80;20999;-68
2021/11/19 08:13:43;;;;;;;86.85;51.05;;;;;;;10.71;43.29;100272.66;1762357;81;21137;-68
2021/11/19 08:16:10;;;;;;;91.32;53.98;;;;;;;10.78;43.38;100268.34;1760266;81;21353;-67
2021/11/19 08:18:59;;;;;;;100.65;59.15;;;;;;;10.63;43.52;100259.23;1763201;81;21066;-69
2021/11/19 08:21:27;;;;;;;92.50;55.03;;;;;;;10.94;43.17;100256.36;1761224;81;21139;-68
2021/11/19 08:23:59;;;;;;;89.03;55.50;;;;;;;11.06;43.01;100252.80;1761838;81;21533;-67
2021/11/19 08:26:38;;;;;;;89.32;54.13;;;;;;;11.56;42.13;100251.02;1761400;81;21083;-68
2021/11/19 08:29:09;;;;;;;94.55;56.33;;;;;;;11.63;41.48;100247.95;1760110;81;21003;-68
2021/11/19 08:31:35;;;;;;;96.55;58.08;;;;;;;11.18;41.46;100246.58;1759751;81;21607;-69
2021/11/19 08:34:03;;;;;;;180.07;91.53;;;;;;;11.27;41.67;100242.84;1761500;81;21784;-68
2021/11/19 08:36:32;;;;;;;122.67;72.67;;;;;;;11.22;41.66;100241.30;1714814;83;21042;-67
2021/11/19 08:39:00;;;;;;;96.92;61.30;;;;;;;11.45;41.58;100237.17;1708120;83;20952;-67
2021/11/19 08:41:27;;;;;;;85.80;53.45;;;;;;;11.63;41.31;100236.20;1716322;83;21066;-67
2021/11/19 08:43:56;;;;;;;90.75;55.55;;;;;;;11.41;41.36;100240.66;1709687;83;21501;-71
2021/11/19 08:46:30;;;;;;;90.95;55.23;;;;;;;11.77;40.88;100239.70;1707851;83;21136;-69
2021/11/19 08:49:02;;;;;;;94.07;58.28;;;;;;;11.37;40.95;100242.02;1714141;82;20963;-70
2021/11/19 08:51:29;;;;;;;121.15;75.57;;;;;;;11.51;41.30;100239.00;1712124;83;21516;-70
2021/11/19 08:54:01;;;;;;;103.78;64.35;;;;;;;11.51;40.94;100238.20;1716328;81;21086;-68
2021/11/19 08:56:29;;;;;;;97.00;58.33;;;;;;;11.68;40.55;100235.12;1711083;82;21633;-70
2021/11/19 08:58:57;;;;;;;91.15;56.28;;;;;;;11.96;39.89;100227.78;1715861;82;21159;-68
2021/11/19 09:01:24;;;;;;;79.12;50.52;;;;;;;11.90;39.92;100225.45;1715529;83;21053;-68
2021/11/19 09:03:52;;;;;;;77.10;47.13;;;;;;;11.63;40.51;100227.54;1718629;81;21023;-67
2021/11/19 09:06:19;;;;;;;56.08;35.65;;;;;;;11.96;39.99;100226.48;1719205;83;20974;-68
2021/11/19 09:08:46;;;;;;;55.10;33.67;;;;;;;12.04;39.37;100224.21;1721407;83;20979;-70
2021/11/19 09:11:16;;;;;;;48.65;33.30;;;;;;;12.02;39.31;100220.50;1717631;83;21208;-68
2021/11/19 09:13:44;;;;;;;58.28;40.20;;;;;;;11.85;39.26;100213.95;1717218;83;20944;-68
2021/11/19 09:16:12;;;;;;;64.22;39.30;;;;;;;11.67;39.74;100216.55;1720884;83;21090;-68
2021/11/19 09:19:20;;;;;;;54.00;37.60;;;;;;;11.62;39.97;100209.77;1721500;83;21335;-71
2021/11/19 09:22:32;;;;;;;53.75;34.00;;;;;;;11.60;40.07;100212.28;1719453;83;21118;-69
2021/11/19 09:25:00;;;;;;;49.88;32.73;;;;;;;11.72;39.99;100206.03;1718820;83;21147;-69
2021/11/19 09:27:28;;;;;;;44.40;30.40;;;;;;;11.65;39.99;100209.89;1719680;82;21094;-71
2021/11/19 09:30:03;;;;;;;48.48;33.58;;;;;;;11.69;40.03;100202.78;1717302;82;21550;-69
2021/11/19 09:32:30;;;;;;;49.75;32.35;;;;;;;11.74;40.10;100194.38;1717399;82;21097;-70
2021/11/19 09:34:58;;;;;;;49.53;32.35;;;;;;;11.99;39.58;100188.72;1721035;83;21140;-71
2021/11/19 09:37:26;;;;;;;58.52;34.27;;;;;;;11.96;39.61;100188.59;1720256;82;21192;-71
2021/11/19 09:39:53;;;;;;;52.08;35.17;;;;;;;11.92;39.63;100182.95;1718594;83;21046;-71
2021/11/19 09:42:51;;;;;;;64.62;39.75;;;;;;;11.88;39.59;100180.92;1720461;82;21045;-70
2021/11/19 09:45:54;;;;;;;61.25;38.15;;;;;;;12.05;39.32;100180.13;1719006;83;21082;-70
2021/11/19 09:48:32;;;;;;;62.60;40.75;;;;;;;12.09;39.38;100180.84;1720925;82;21034;-69
2021/11/19 09:51:35;;;;;;;71.02;44.58;;;;;;;11.89;39.53;100172.92;1696247;82;21185;-70
2021/11/19 09:54:35;;;;;;;70.55;43.80;;;;;;;11.81;39.70;100165.19;1718783;83;20986;-70
2021/11/19 09:57:16;;;;;;;71.02;45.05;;;;;;;11.07;40.39;100168.32;1721150;83;21082;-69
2021/11/19 09:59:47;;;;;;;79.10;42.15;;;;;;;11.23;40.69;100162.52;1720387;83;20947;-70
2021/11/19 10:02:53;;;;;;;67.85;40.88;;;;;;;11.57;40.40;100157.83;1717817;82;21588;-69
2021/11/19 10:05:45;;;;;;;59.30;40.15;;;;;;;11.61;40.44;100152.03;1720738;83;21126;-71
2021/11/19 10:08:32;;;;;;;64.97;39.63;;;;;;;11.57;40.46;100152.61;1721083;83;21070;-71
2021/11/19 10:11:34;;;;;;;67.17;40.10;;;;;;;11.88;40.34;100141.25;1720747;83;20979;-70
2021/11/19 10:14:31;;;;;;;55.75;33.73;;;;;;;11.35;41.01;100142.22;1719632;83;21505;-68
2021/11/19 10:17:24;;;;;;;49.23;28.45;;;;;;;11.61;40.69;100130.34;1684253;83;20943;-70
2021/11/19 10:20:07;;;;;;;44.90;27.48;;;;;;;11.64;40.26;100129.45;1658480;83;21124;-70
2021/11/19 10:22:39;;;;;;;46.53;27.32;;;;;;;11.59;40.30;100121.88;1719091;83;20935;-69
2021/11/19 10:25:12;;;;;;;46.45;27.85;;;;;;;11.36;40.67;100120.34;1726768;82;21058;-70
2021/11/19 10:27:49;;;;;;;44.18;27.85;;;;;;;11.26;40.93;100123.00;1720437;82;21071;-71
2021/11/19 10:30:40;;;;;;;44.65;27.55;;;;;;;11.44;40.89;100126.74;1726917;82;21124;-69
2021/11/19 10:33:18;;;;;;;48.50;26.82;;;;;;;11.37;40.98;100123.28;1720338;82;21141;-69
2021/11/19 10:36:23;;;;;;;53.25;28.55;;;;;;;10.96;41.58;100127.90;1718096;83;21100;-70
2021/11/19 10:39:29;;;;;;;48.60;27.75;;;;;;;11.07;41.65;100127.09;1725004;81;21176;-69
2021/11/19 10:42:46;;;;;;;45.58;28.83;;;;;;;10.83;41.84;100120.45;1718507;82;21027;-69
2021/11/19 10:45:45;;;;;;;45.43;28.07;;;;;;;10.73;42.33;100111.66;1723705;82;21019;-69
2021/11/19 10:48:42;;;;;;;43.78;26.55;;;;;;;10.58;42.92;100108.31;1721339;82;21126;-71
2021/11/19 10:51:37;;;;;;;40.25;25.57;;;;;;;10.95;42.95;100098.11;1719873;83;21050;-72
2021/11/19 10:54:44;;;;;;;38.70;24.50;;;;;;;11.83;41.88;100095.80;1719675;83;21078;-69
2021/11/19 10:57:37;;;;;;;40.50;24.10;;;;;;;11.24;42.85;100089.26;1718137;83;21074;-70
2021/11/19 11:00:25;;;;;;;36.80;23.87;;;;;;;11.10;43.51;100085.77;1712671;83;21101;-70
2021/11/19 11:02:56;;;;;;;38.63;25.45;;;;;;;11.37;43.70;100084.64;1721345;82;21173;-69
2021/11/19 11:05:34;;;;;;;40.05;26.77;;;;;;;11.24;43.77;100095.78;1726684;81;22158;-69
2021/11/19 11:08:26;;;;;;;39.10;24.90;;;;;;;11.34;43.65;100089.73;1727825;81;20989;-69
2021/11/19 11:11:03;;;;;;;37.03;21.90;;;;;;;11.15;44.00;100091.72;1727181;81;22129;-70
2021/11/19 11:13:43;;;;;;;35.17;22.35;;;;;;;10.95;44.68;100085.87;1726041;80;21045;-69
2021/11/19 11:16:23;;;;;;;38.30;22.30;;;;;;;10.83;45.20;100082.14;1724876;81;21773;-69
2021/11/19 11:18:59;;;;;;;36.68;23.27;;;;;;;10.88;45.44;100082.40;1726966;81;21012;-71
2021/11/19 11:21:34;;;;;;;39.98;22.95;;;;;;;10.94;45.47;100081.63;1726216;81;21483;-71
2021/11/19 11:24:24;;;;;;;50.50;33.78;;;;;;;11.24;44.97;100074.91;1725905;82;21076;-71
2021/11/19 11:27:14;;;;;;;59.58;40.65;;;;;;;11.31;44.92;100071.84;1726977;81;21567;-71
2021/11/19 11:30:05;;;;;;;48.23;34.55;;;;;;;11.19;45.16;100072.08;1727340;81;21148;-71
2021/11/19 11:32:55;;;;;;;50.80;38.00;;;;;;;11.16;45.42;100060.72;1724880;80;21013;-71
2021/11/19 11:35:40;;;;;;;45.83;31.85;;;;;;;10.89;46.09;100057.93;1725647;81;21013;-70
2021/11/19 11:38:13;;;;;;;45.60;28.98;;;;;;;10.86;46.64;100060.91;1726130;81;21045;-70